sensor_id;sensor_type;location;lat;lon;timestamp;pressure;altitude;pressure_sealevel;temperature;humidity
10466;BME280;5280;42.600;23.556;2023-06-22T00:15:55;93751.75;;;19.25;100.00
10466;BME280;5280;42.600;23.556;2023-06-22T00:42:29;93724.53;;;18.88;100.00
10466;BME280;5280;42.600;23.556;2023-06-22T00:51:58;93722.03;;;18.86;100.00
10466;BME280;5280;42.600;23.556;2023-06-22T00:55:03;93713.16;;;18.86;100.00
10466;BME280;5280;42.600;23.556;2023-06-22T01:47:11;93737.41;;;18.50;100.00
10466;BME280;5280;42.600;23.556;2023-06-22T01:53:28;93729.66;;;18.39;100.00
10466;BME280;5280;42.600;23.556;2023-06-22T02:20:59;93748.63;;;18.20;100.00
10466;BME280;5280;42.600;23.556;2023-06-22T02:30:56;93839.19;;;18.84;100.00
10466;BME280;5280;42.600;23.556;2023-06-22T02:37:22;93745.47;;;18.25;100.00
10466;BME280;5280;42.600;23.556;2023-06-22T02:40:27;93776.00;;;18.40;100.00
10466;BME280;5280;42.600;23.556;2023-06-22T02:43:11;93722.34;;;18.16;100.00
10466;BME280;5280;42.600;23.556;2023-06-22T02:46:05;93735.09;;;18.22;100.00
10466;BME280;5280;42.600;23.556;2023-06-22T02:48:50;93721.66;;;18.14;100.00
10466;BME280;5280;42.600;23.556;2023-06-22T02:52:04;93822.44;;;18.82;100.00
10466;BME280;5280;42.600;23.556;2023-06-22T02:57:56;93729.38;;;18.17;100.00
10466;BME280;5280;42.600;23.556;2023-06-22T03:04:24;93744.84;;;18.05;100.00
10466;BME280;5280;42.600;23.556;2023-06-22T03:07:11;93746.00;;;18.02;100.00
10466;BME280;5280;42.600;23.556;2023-06-22T03:09:43;93770.28;;;18.09;100.00
10466;BME280;5280;42.600;23.556;2023-06-22T03:16:39;93777.25;;;18.02;100.00
10466;BME280;5280;42.600;23.556;2023-06-22T03:19:19;93770.38;;;17.99;100.00
10466;BME280;5280;42.600;23.556;2023-06-22T03:22:06;93845.03;;;18.54;100.00
10466;BME280;5280;42.600;23.556;2023-06-22T03:24:49;93762.44;;;18.08;100.00
10466;BME280;5280;42.600;23.556;2023-06-22T03:27:27;93774.50;;;18.12;100.00
10466;BME280;5280;42.600;23.556;2023-06-22T03:29:59;93763.94;;;18.10;100.00
10466;BME280;5280;42.600;23.556;2023-06-22T03:32:32;93765.63;;;18.11;100.00
10466;BME280;5280;42.600;23.556;2023-06-22T03:35:11;93761.78;;;18.14;100.00
10466;BME280;5280;42.600;23.556;2023-06-22T03:38:17;93771.69;;;18.21;100.00
10466;BME280;5280;42.600;23.556;2023-06-22T03:41:17;93750.78;;;18.17;100.00
10466;BME280;5280;42.600;23.556;2023-06-22T03:43:47;93756.78;;;18.19;100.00
10466;BME280;5280;42.600;23.556;2023-06-22T03:46:16;93785.00;;;18.39;100.00
10466;BME280;5280;42.600;23.556;2023-06-22T03:48:53;93758.53;;;18.28;100.00
10466;BME280;5280;42.600;23.556;2023-06-22T03:51:40;93822.28;;;18.58;100.00
10466;BME280;5280;42.600;23.556;2023-06-22T03:54:30;93851.06;;;18.82;100.00
10466;BME280;5280;42.600;23.556;2023-06-22T03:57:28;93813.75;;;18.55;100.00
10466;BME280;5280;42.600;23.556;2023-06-22T04:00:28;93794.75;;;18.48;100.00
10466;BME280;5280;42.600;23.556;2023-06-22T04:03:21;93890.91;;;19.19;100.00
10466;BME280;5280;42.600;23.556;2023-06-22T04:05:52;93821.38;;;18.67;100.00
10466;BME280;5280;42.600;23.556;2023-06-22T04:08:39;93892.81;;;19.26;100.00
10466;BME280;5280;42.600;23.556;2023-06-22T04:11:07;93794.09;;;18.72;100.00
10466;BME280;5280;42.600;23.556;2023-06-22T04:13:53;93797.50;;;18.82;100.00
10466;BME280;5280;42.600;23.556;2023-06-22T04:20:35;93800.06;;;19.00;100.00
10466;BME280;5280;42.600;23.556;2023-06-22T04:33:25;93846.22;;;19.61;100.00
10466;BME280;5280;42.600;23.556;2023-06-22T04:46:00;93760.72;;;19.66;100.00
10466;BME280;5280;42.600;23.556;2023-06-22T05:09:27;93841.31;;;20.94;100.00
10466;BME280;5280;42.600;23.556;2023-06-22T05:12:18;93878.41;;;21.15;100.00
10466;BME280;5280;42.600;23.556;2023-06-22T05:14:45;93824.19;;;20.87;100.00
10466;BME280;5280;42.600;23.556;2023-06-22T05:20:48;93836.41;;;21.14;100.00
10466;BME280;5280;42.600;23.556;2023-06-22T05:23:49;93811.06;;;21.00;99.75
10466;BME280;5280;42.600;23.556;2023-06-22T05:47:08;93905.72;;;22.58;96.52
10466;BME280;5280;42.600;23.556;2023-06-22T05:50:08;93831.94;;;22.22;96.63
10466;BME280;5280;42.600;23.556;2023-06-22T05:53:16;93824.13;;;22.27;95.75
10466;BME280;5280;42.600;23.556;2023-06-22T05:56:44;93826.66;;;22.28;96.52
10466;BME280;5280;42.600;23.556;2023-06-22T06:07:05;93821.44;;;22.50;94.19
10466;BME280;5280;42.600;23.556;2023-06-22T06:09:43;93818.19;;;22.54;94.92
10466;BME280;5280;42.600;23.556;2023-06-22T06:12:11;93895.56;;;23.06;96.08
10466;BME280;5280;42.600;23.556;2023-06-22T06:14:40;93936.03;;;23.35;93.85
10466;BME280;5280;42.600;23.556;2023-06-22T06:17:14;93824.03;;;22.81;93.88
10466;BME280;5280;42.600;23.556;2023-06-22T06:19:50;93920.91;;;23.49;93.12
10466;BME280;5280;42.600;23.556;2023-06-22T06:22:42;93835.00;;;23.08;90.51
10466;BME280;5280;42.600;23.556;2023-06-22T06:25:14;93817.53;;;23.04;91.03
10466;BME280;5280;42.600;23.556;2023-06-22T06:27:45;93832.19;;;23.16;89.74
10466;BME280;5280;42.600;23.556;2023-06-22T06:30:40;93815.66;;;23.20;90.77
10466;BME280;5280;42.600;23.556;2023-06-22T06:33:14;93907.25;;;23.86;91.95
10466;BME280;5280;42.600;23.556;2023-06-22T06:35:45;93812.00;;;23.42;90.81
10466;BME280;5280;42.600;23.556;2023-06-22T06:38:13;93829.41;;;23.69;89.26
10466;BME280;5280;42.600;23.556;2023-06-22T06:40:43;93820.34;;;23.76;87.86
10466;BME280;5280;42.600;23.556;2023-06-22T06:43:15;93806.66;;;23.78;88.65
10466;BME280;5280;42.600;23.556;2023-06-22T06:45:43;93803.03;;;23.85;87.91
10466;BME280;5280;42.600;23.556;2023-06-22T06:48:12;93806.50;;;24.00;87.43
10466;BME280;5280;42.600;23.556;2023-06-22T06:51:05;93830.38;;;24.18;88.39
10466;BME280;5280;42.600;23.556;2023-06-22T06:53:56;93903.66;;;24.72;86.98
10466;BME280;5280;42.600;23.556;2023-06-22T06:56:28;93859.47;;;24.59;87.83
10466;BME280;5280;42.600;23.556;2023-06-22T06:59:04;93884.38;;;24.75;88.14
10466;BME280;5280;42.600;23.556;2023-06-22T07:01:35;93794.03;;;24.42;88.20
10466;BME280;5280;42.600;23.556;2023-06-22T07:04:08;93817.91;;;24.66;88.53
10466;BME280;5280;42.600;23.556;2023-06-22T07:06:40;93879.44;;;25.07;86.64
10466;BME280;5280;42.600;23.556;2023-06-22T07:09:09;93880.38;;;25.20;86.98
10466;BME280;5280;42.600;23.556;2023-06-22T07:11:36;93902.16;;;25.40;85.60
10466;BME280;5280;42.600;23.556;2023-06-22T07:14:07;93873.84;;;25.43;83.16
10466;BME280;5280;42.600;23.556;2023-06-22T07:16:35;93904.06;;;25.74;81.18
10466;BME280;5280;42.600;23.556;2023-06-22T07:19:05;93823.88;;;25.39;80.73
10466;BME280;5280;42.600;23.556;2023-06-22T07:21:58;93830.34;;;25.44;79.95
10466;BME280;5280;42.600;23.556;2023-06-22T07:24:47;93818.56;;;25.58;77.58
10466;BME280;5280;42.600;23.556;2023-06-22T07:27:15;93854.13;;;25.90;77.33
10466;BME280;5280;42.600;23.556;2023-06-22T07:29:45;93805.31;;;25.77;76.75
10466;BME280;5280;42.600;23.556;2023-06-22T07:32:13;93808.47;;;25.87;76.42
10466;BME280;5280;42.600;23.556;2023-06-22T07:34:41;93822.50;;;26.10;76.05
10466;BME280;5280;42.600;23.556;2023-06-22T07:37:09;93818.09;;;26.02;71.65
10466;BME280;5280;42.600;23.556;2023-06-22T07:39:39;93889.78;;;26.61;72.04
10466;BME280;5280;42.600;23.556;2023-06-22T07:42:09;93808.13;;;26.16;71.79
10466;BME280;5280;42.600;23.556;2023-06-22T07:44:48;93860.34;;;26.44;70.11
10466;BME280;5280;42.600;23.556;2023-06-22T07:47:16;93905.03;;;26.75;70.64
10466;BME280;5280;42.600;23.556;2023-06-22T07:49:45;93827.16;;;26.36;70.09
10466;BME280;5280;42.600;23.556;2023-06-22T07:52:12;93833.25;;;26.44;70.81
10466;BME280;5280;42.600;23.556;2023-06-22T07:54:44;93843.03;;;26.65;70.94
10466;BME280;5280;42.600;23.556;2023-06-22T07:57:16;93873.13;;;26.90;67.77
10466;BME280;5280;42.600;23.556;2023-06-22T07:59:45;93830.53;;;26.71;66.17
10466;BME280;5280;42.600;23.556;2023-06-22T08:02:12;93893.19;;;27.22;61.87
10466;BME280;5280;42.600;23.556;2023-06-22T08:04:43;93846.22;;;26.95;61.92
10466;BME280;5280;42.600;23.556;2023-06-22T08:07:10;93816.75;;;26.85;64.01
10466;BME280;5280;42.600;23.556;2023-06-22T08:09:39;93810.53;;;26.91;63.46
10466;BME280;5280;42.600;23.556;2023-06-22T08:12:13;93799.06;;;27.03;62.62
10466;BME280;5280;42.600;23.556;2023-06-22T08:14:42;93892.94;;;27.56;56.24
10466;BME280;5280;42.600;23.556;2023-06-22T08:17:09;93806.53;;;27.20;56.90
10466;BME280;5280;42.600;23.556;2023-06-22T08:19:37;93846.38;;;27.53;59.36
10466;BME280;5280;42.600;23.556;2023-06-22T08:22:04;93839.69;;;27.49;58.26
10466;BME280;5280;42.600;23.556;2023-06-22T08:24:31;93805.69;;;27.33;58.03
10466;BME280;5280;42.600;23.556;2023-06-22T08:27:01;93832.34;;;27.62;54.32
10466;BME280;5280;42.600;23.556;2023-06-22T08:29:28;93830.47;;;27.69;55.27
10466;BME280;5280;42.600;23.556;2023-06-22T08:31:57;93868.81;;;27.99;55.28
10466;BME280;5280;42.600;23.556;2023-06-22T08:34:24;93838.47;;;28.02;54.21
10466;BME280;5280;42.600;23.556;2023-06-22T08:36:52;93845.75;;;28.15;54.84
10466;BME280;5280;42.600;23.556;2023-06-22T08:39:19;93828.16;;;28.11;52.62
10466;BME280;5280;42.600;23.556;2023-06-22T08:41:49;93782.69;;;27.93;52.37
10466;BME280;5280;42.600;23.556;2023-06-22T08:44:21;93795.16;;;28.07;53.33
10466;BME280;5280;42.600;23.556;2023-06-22T08:47:30;93854.75;;;28.53;53.89
10466;BME280;5280;42.600;23.556;2023-06-22T08:49:42;93819.91;;;28.37;54.94
10466;BME280;5280;42.600;23.556;2023-06-22T08:52:10;93845.06;;;28.64;51.65
10466;BME280;5280;42.600;23.556;2023-06-22T08:54:40;93848.38;;;28.66;54.56
10466;BME280;5280;42.600;23.556;2023-06-22T08:57:07;93799.72;;;28.51;51.14
10466;BME280;5280;42.600;23.556;2023-06-22T08:59:33;93831.38;;;28.71;51.42
10466;BME280;5280;42.600;23.556;2023-06-22T09:02:00;93833.56;;;28.93;51.83
10466;BME280;5280;42.600;23.556;2023-06-22T09:04:27;93864.53;;;29.17;51.87
10466;BME280;5280;42.600;23.556;2023-06-22T09:06:56;93819.53;;;29.15;50.81
10466;BME280;5280;42.600;23.556;2023-06-22T09:09:23;93841.63;;;29.25;51.00
10466;BME280;5280;42.600;23.556;2023-06-22T09:11:51;93827.59;;;29.28;50.27
10466;BME280;5280;42.600;23.556;2023-06-22T09:17:40;93851.25;;;29.70;49.87
10466;BME280;5280;42.600;23.556;2023-06-22T09:20:09;93802.13;;;29.40;50.16
10466;BME280;5280;42.600;23.556;2023-06-22T09:25:59;93805.84;;;29.64;47.55
10466;BME280;5280;42.600;23.556;2023-06-22T09:28:26;93791.00;;;29.60;49.64
10466;BME280;5280;42.600;23.556;2023-06-22T09:31:10;93776.34;;;29.61;49.26
10466;BME280;5280;42.600;23.556;2023-06-22T09:36:11;93804.81;;;29.83;47.02
10466;BME280;5280;42.600;23.556;2023-06-22T09:38:38;93855.66;;;30.26;45.58
10466;BME280;5280;42.600;23.556;2023-06-22T09:41:06;93824.41;;;30.10;47.49
10466;BME280;5280;42.600;23.556;2023-06-22T09:43:33;93836.81;;;30.06;47.33
10466;BME280;5280;42.600;23.556;2023-06-22T09:46:01;93850.56;;;30.29;47.95
10466;BME280;5280;42.600;23.556;2023-06-22T09:48:28;93851.31;;;30.36;45.11
10466;BME280;5280;42.600;23.556;2023-06-22T09:50:56;93816.19;;;30.28;46.18
10466;BME280;5280;42.600;23.556;2023-06-22T09:53:23;93850.47;;;30.54;46.60
10466;BME280;5280;42.600;23.556;2023-06-22T09:55:50;93850.38;;;30.61;43.63
10466;BME280;5280;42.600;23.556;2023-06-22T09:58:19;93857.09;;;30.76;45.11
10466;BME280;5280;42.600;23.556;2023-06-22T10:00:46;93850.16;;;30.62;46.05
10466;BME280;5280;42.600;23.556;2023-06-22T10:03:13;93857.56;;;30.73;43.18
10466;BME280;5280;42.600;23.556;2023-06-22T10:05:40;93848.66;;;30.78;45.26
10466;BME280;5280;42.600;23.556;2023-06-22T10:08:07;93814.41;;;30.52;44.50
10466;BME280;5280;42.600;23.556;2023-06-22T10:10:35;93854.56;;;30.75;43.50
10466;BME280;5280;42.600;23.556;2023-06-22T10:13:08;93841.91;;;30.81;44.66
10466;BME280;5280;42.600;23.556;2023-06-22T10:15:37;93848.91;;;30.76;45.48
10466;BME280;5280;42.600;23.556;2023-06-22T10:18:04;93840.72;;;30.76;45.91
10466;BME280;5280;42.600;23.556;2023-06-22T10:20:33;93836.31;;;30.75;45.98
10466;BME280;5280;42.600;23.556;2023-06-22T10:23:03;93828.03;;;30.82;43.58
10466;BME280;5280;42.600;23.556;2023-06-22T10:25:31;93833.34;;;30.89;45.27
10466;BME280;5280;42.600;23.556;2023-06-22T10:27:58;93839.66;;;30.89;43.35
10466;BME280;5280;42.600;23.556;2023-06-22T10:30:25;93845.13;;;30.89;42.84
10466;BME280;5280;42.600;23.556;2023-06-22T10:32:55;93825.03;;;30.84;45.25
10466;BME280;5280;42.600;23.556;2023-06-22T10:35:22;93824.25;;;30.95;45.78
10466;BME280;5280;42.600;23.556;2023-06-22T11:46:17;93798.88;;;30.05;45.77
10466;BME280;5280;42.600;23.556;2023-06-22T11:48:44;93789.84;;;30.04;43.51
10466;BME280;5280;42.600;23.556;2023-06-22T11:51:11;93759.06;;;29.85;43.24
10466;BME280;5280;42.600;23.556;2023-06-22T11:53:38;93797.50;;;30.14;41.73
10466;BME280;5280;42.600;23.556;2023-06-22T11:56:06;93789.91;;;30.16;41.66
10466;BME280;5280;42.600;23.556;2023-06-22T11:58:33;93785.38;;;30.10;42.58
10466;BME280;5280;42.600;23.556;2023-06-22T12:01:01;93791.09;;;30.08;43.77
10466;BME280;5280;42.600;23.556;2023-06-22T12:03:29;93701.88;;;29.49;43.69
10466;BME280;5280;42.600;23.556;2023-06-22T12:05:56;93789.97;;;29.98;43.54
10466;BME280;5280;42.600;23.556;2023-06-22T12:08:23;93784.59;;;29.91;45.29
10466;BME280;5280;42.600;23.556;2023-06-22T12:10:51;93775.88;;;29.82;44.83
10466;BME280;5280;42.600;23.556;2023-06-22T12:13:19;93792.38;;;29.87;45.70
10466;BME280;5280;42.600;23.556;2023-06-22T12:15:46;93693.31;;;29.27;45.86
10466;BME280;5280;42.600;23.556;2023-06-22T12:18:16;93742.66;;;29.37;47.11
10466;BME280;5280;42.600;23.556;2023-06-22T12:20:50;93804.72;;;29.72;48.20
10466;BME280;5280;42.600;23.556;2023-06-22T12:23:20;93709.50;;;29.04;51.04
10466;BME280;5280;42.600;23.556;2023-06-22T12:25:53;93801.16;;;29.53;51.81
10466;BME280;5280;42.600;23.556;2023-06-22T12:28:21;93752.41;;;29.27;53.68
10466;BME280;5280;42.600;23.556;2023-06-22T12:30:51;93803.59;;;29.43;54.47
10466;BME280;5280;42.600;23.556;2023-06-22T12:33:26;93767.09;;;29.01;54.73
10466;BME280;5280;42.600;23.556;2023-06-22T12:36:08;93794.53;;;28.99;60.50
10466;BME280;5280;42.600;23.556;2023-06-22T12:38:36;93702.81;;;28.32;60.46
10466;BME280;5280;42.600;23.556;2023-06-22T12:41:05;93794.13;;;28.78;62.54
10466;BME280;5280;42.600;23.556;2023-06-22T12:43:32;93702.13;;;28.05;63.85
10466;BME280;5280;42.600;23.556;2023-06-22T12:45:59;93739.13;;;28.13;64.02
10466;BME280;5280;42.600;23.556;2023-06-22T12:48:26;93808.09;;;28.50;64.68
10466;BME280;5280;42.600;23.556;2023-06-22T12:50:54;93780.94;;;28.05;61.64
10466;BME280;5280;42.600;23.556;2023-06-22T12:53:29;93772.72;;;27.80;56.16
10466;BME280;5280;42.600;23.556;2023-06-22T12:55:56;93804.03;;;27.90;55.97
10466;BME280;5280;42.600;23.556;2023-06-22T12:58:23;93777.81;;;27.64;59.54
10466;BME280;5280;42.600;23.556;2023-06-22T13:00:50;93761.59;;;27.44;64.31
10466;BME280;5280;42.600;23.556;2023-06-22T13:03:17;93819.63;;;27.63;65.41
10466;BME280;5280;42.600;23.556;2023-06-22T13:05:44;93831.34;;;27.50;67.72
10466;BME280;5280;42.600;23.556;2023-06-22T13:08:12;93827.38;;;27.39;70.10
10466;BME280;5280;42.600;23.556;2023-06-22T13:10:43;93830.31;;;27.31;70.66
10466;BME280;5280;42.600;23.556;2023-06-22T13:13:10;93769.44;;;26.94;71.60
10466;BME280;5280;42.600;23.556;2023-06-22T13:15:38;93818.84;;;27.16;74.42
10466;BME280;5280;42.600;23.556;2023-06-22T13:18:05;93828.44;;;27.25;74.17
10466;BME280;5280;42.600;23.556;2023-06-22T13:20:32;93777.97;;;26.98;74.37
10466;BME280;5280;42.600;23.556;2023-06-22T13:23:00;93804.44;;;27.22;73.40
10466;BME280;5280;42.600;23.556;2023-06-22T13:25:27;93814.47;;;27.28;64.35
10466;BME280;5280;42.600;23.556;2023-06-22T13:27:56;93821.38;;;27.24;62.92
10466;BME280;5280;42.600;23.556;2023-06-22T13:30:23;93809.63;;;27.30;68.17
10466;BME280;5280;42.600;23.556;2023-06-22T13:32:51;93805.88;;;27.38;68.78
10466;BME280;5280;42.600;23.556;2023-06-22T13:35:18;93810.84;;;27.41;68.30
10466;BME280;5280;42.600;23.556;2023-06-22T13:37:45;93800.03;;;27.34;68.94
10466;BME280;5280;42.600;23.556;2023-06-22T13:40:12;93756.28;;;27.05;69.50
10466;BME280;5280;42.600;23.556;2023-06-22T13:42:40;93814.66;;;27.33;70.45
10466;BME280;5280;42.600;23.556;2023-06-22T13:45:09;93815.69;;;27.26;70.49
10466;BME280;5280;42.600;23.556;2023-06-22T13:47:38;93755.88;;;26.75;68.58
10466;BME280;5280;42.600;23.556;2023-06-22T13:50:06;93833.28;;;27.04;68.25
10466;BME280;5280;42.600;23.556;2023-06-22T13:52:33;93801.13;;;26.54;65.06
10466;BME280;5280;42.600;23.556;2023-06-22T13:55:02;93810.91;;;26.29;63.65
10466;BME280;5280;42.600;23.556;2023-06-22T13:57:30;93825.72;;;26.33;67.37
10466;BME280;5280;42.600;23.556;2023-06-22T13:59:57;93801.66;;;26.17;70.14
10466;BME280;5280;42.600;23.556;2023-06-22T14:02:26;93795.56;;;25.89;71.05
10466;BME280;5280;42.600;23.556;2023-06-22T14:04:53;93809.09;;;25.89;71.35
10466;BME280;5280;42.600;23.556;2023-06-22T14:07:20;93797.41;;;25.75;72.55
10466;BME280;5280;42.600;23.556;2023-06-22T14:09:49;93756.44;;;25.44;73.69
10466;BME280;5280;42.600;23.556;2023-06-22T14:12:16;93799.22;;;25.61;74.39
10466;BME280;5280;42.600;23.556;2023-06-22T14:14:45;93821.56;;;25.77;74.57
10466;BME280;5280;42.600;23.556;2023-06-22T14:17:14;93785.59;;;25.48;75.79
10466;BME280;5280;42.600;23.556;2023-06-22T14:19:43;93770.34;;;25.41;76.08
10466;BME280;5280;42.600;23.556;2023-06-22T14:22:10;93814.19;;;25.57;76.73
10466;BME280;5280;42.600;23.556;2023-06-22T14:24:37;93823.31;;;25.50;77.63
10466;BME280;5280;42.600;23.556;2023-06-22T14:27:05;93771.31;;;25.20;77.41
10466;BME280;5280;42.600;23.556;2023-06-22T14:29:34;93808.47;;;25.46;78.04
10466;BME280;5280;42.600;23.556;2023-06-22T14:32:02;93793.44;;;25.37;79.01
10466;BME280;5280;42.600;23.556;2023-06-22T14:34:29;93814.34;;;25.49;80.49
10466;BME280;5280;42.600;23.556;2023-06-22T14:37:00;93810.59;;;25.50;80.80
10466;BME280;5280;42.600;23.556;2023-06-22T14:39:27;93797.22;;;25.42;80.64
10466;BME280;5280;42.600;23.556;2023-06-22T14:41:55;93776.78;;;25.33;80.77
10466;BME280;5280;42.600;23.556;2023-06-22T14:44:26;93778.47;;;25.34;80.28
10466;BME280;5280;42.600;23.556;2023-06-22T14:46:54;93809.53;;;25.51;80.44
10466;BME280;5280;42.600;23.556;2023-06-22T14:49:23;93714.38;;;24.94;80.54
10466;BME280;5280;42.600;23.556;2023-06-22T14:51:50;93807.47;;;25.53;81.65
10466;BME280;5280;42.600;23.556;2023-06-22T14:54:22;93812.75;;;25.55;82.15
10466;BME280;5280;42.600;23.556;2023-06-22T14:56:50;93807.75;;;25.58;82.27
10466;BME280;5280;42.600;23.556;2023-06-22T14:59:17;93796.00;;;25.51;82.57
10466;BME280;5280;42.600;23.556;2023-06-22T15:01:44;93709.97;;;24.93;82.78
10466;BME280;5280;42.600;23.556;2023-06-22T15:04:11;93783.88;;;25.41;83.81
10466;BME280;5280;42.600;23.556;2023-06-22T15:06:38;93792.47;;;25.44;83.82
10466;BME280;5280;42.600;23.556;2023-06-22T15:09:06;93797.69;;;25.52;84.09
10466;BME280;5280;42.600;23.556;2023-06-22T15:11:34;93743.63;;;25.18;84.01
10466;BME280;5280;42.600;23.556;2023-06-22T15:14:01;93776.81;;;25.46;84.25
10466;BME280;5280;42.600;23.556;2023-06-22T15:16:28;93800.84;;;25.56;85.01
10466;BME280;5280;42.600;23.556;2023-06-22T15:18:55;93798.97;;;25.56;85.42
10466;BME280;5280;42.600;23.556;2023-06-22T15:21:24;93800.66;;;25.57;86.33
10466;BME280;5280;42.600;23.556;2023-06-22T15:23:51;93776.44;;;25.49;86.80
10466;BME280;5280;42.600;23.556;2023-06-22T15:26:19;93779.78;;;25.51;86.64
10466;BME280;5280;42.600;23.556;2023-06-22T15:28:48;93794.44;;;25.63;85.69
10466;BME280;5280;42.600;23.556;2023-06-22T15:31:16;93795.88;;;25.59;85.38
10466;BME280;5280;42.600;23.556;2023-06-22T15:33:43;93754.94;;;25.41;86.56
10466;BME280;5280;42.600;23.556;2023-06-22T15:36:09;93745.38;;;25.39;87.04
10466;BME280;5280;42.600;23.556;2023-06-22T15:38:37;93775.69;;;25.55;86.81
10466;BME280;5280;42.600;23.556;2023-06-22T15:41:04;93736.19;;;25.33;86.83
10466;BME280;5280;42.600;23.556;2023-06-22T15:43:30;93721.56;;;25.21;86.90
10466;BME280;5280;42.600;23.556;2023-06-22T15:45:59;93777.66;;;25.47;87.24
10466;BME280;5280;42.600;23.556;2023-06-22T15:48:27;93792.03;;;25.47;88.03
10466;BME280;5280;42.600;23.556;2023-06-22T15:50:54;93766.75;;;25.27;88.02
10466;BME280;5280;42.600;23.556;2023-06-22T15:53:21;93792.47;;;25.51;88.34
10466;BME280;5280;42.600;23.556;2023-06-22T15:55:48;93776.81;;;25.46;90.14
10466;BME280;5280;42.600;23.556;2023-06-22T15:58:15;93756.72;;;25.21;91.12
10466;BME280;5280;42.600;23.556;2023-06-22T16:00:42;93798.09;;;25.49;93.61
10466;BME280;5280;42.600;23.556;2023-06-22T16:03:12;93801.84;;;25.48;93.02
10466;BME280;5280;42.600;23.556;2023-06-22T16:05:39;93772.88;;;25.42;92.93
10466;BME280;5280;42.600;23.556;2023-06-22T16:08:09;93756.56;;;25.29;92.71
10466;BME280;5280;42.600;23.556;2023-06-22T16:10:38;93792.34;;;25.59;92.10
10466;BME280;5280;42.600;23.556;2023-06-22T16:13:08;93792.28;;;25.52;93.27
10466;BME280;5280;42.600;23.556;2023-06-22T16:15:35;93792.09;;;25.54;93.88
10466;BME280;5280;42.600;23.556;2023-06-22T16:18:04;93764.69;;;25.29;93.97
10466;BME280;5280;42.600;23.556;2023-06-22T16:20:33;93797.69;;;25.52;94.76
10466;BME280;5280;42.600;23.556;2023-06-22T16:23:00;93751.53;;;25.19;95.78
10466;BME280;5280;42.600;23.556;2023-06-22T16:25:27;93816.44;;;25.54;95.69
10466;BME280;5280;42.600;23.556;2023-06-22T16:27:54;93770.25;;;25.14;96.05
10466;BME280;5280;42.600;23.556;2023-06-22T16:30:21;93791.28;;;25.19;98.82
10466;BME280;5280;42.600;23.556;2023-06-22T16:32:52;93782.09;;;25.13;99.14
10466;BME280;5280;42.600;23.556;2023-06-22T16:35:20;93779.50;;;24.99;99.78
10466;BME280;5280;42.600;23.556;2023-06-22T16:37:48;93711.03;;;24.64;100.00
10466;BME280;5280;42.600;23.556;2023-06-22T16:40:16;93811.25;;;25.18;99.66
10466;BME280;5280;42.600;23.556;2023-06-22T16:42:46;93759.41;;;24.80;100.00
10466;BME280;5280;42.600;23.556;2023-06-22T16:45:13;93761.63;;;24.76;100.00
10466;BME280;5280;42.600;23.556;2023-06-22T16:47:41;93802.97;;;24.92;100.00
10466;BME280;5280;42.600;23.556;2023-06-22T16:50:08;93791.72;;;24.88;100.00
10466;BME280;5280;42.600;23.556;2023-06-22T16:52:35;93785.19;;;24.82;99.64
10466;BME280;5280;42.600;23.556;2023-06-22T16:55:05;93800.66;;;24.89;99.44
10466;BME280;5280;42.600;23.556;2023-06-22T16:57:32;93808.09;;;24.86;98.96
10466;BME280;5280;42.600;23.556;2023-06-22T16:59:59;93808.50;;;24.83;97.18
10466;BME280;5280;42.600;23.556;2023-06-22T17:02:27;93780.41;;;24.57;98.07
10466;BME280;5280;42.600;23.556;2023-06-22T17:04:58;93798.63;;;24.69;95.36
10466;BME280;5280;42.600;23.556;2023-06-22T17:07:26;93812.16;;;24.76;96.26
10466;BME280;5280;42.600;23.556;2023-06-22T17:09:55;93803.97;;;24.63;94.20
10466;BME280;5280;42.600;23.556;2023-06-22T17:12:25;93814.00;;;24.69;94.17
10466;BME280;5280;42.600;23.556;2023-06-22T17:14:52;93796.13;;;24.47;93.91
10466;BME280;5280;42.600;23.556;2023-06-22T17:17:19;93765.38;;;24.20;93.47
10466;BME280;5280;42.600;23.556;2023-06-22T17:19:47;93813.06;;;24.55;94.17
10466;BME280;5280;42.600;23.556;2023-06-22T17:22:14;93810.13;;;24.50;94.16
10466;BME280;5280;42.600;23.556;2023-06-22T17:24:41;93779.97;;;24.25;94.53
10466;BME280;5280;42.600;23.556;2023-06-22T17:27:09;93797.66;;;24.28;94.97
10466;BME280;5280;42.600;23.556;2023-06-22T17:29:38;93802.66;;;24.31;96.02
10466;BME280;5280;42.600;23.556;2023-06-22T17:32:05;93798.63;;;24.20;95.99
10466;BME280;5280;42.600;23.556;2023-06-22T17:34:32;93764.91;;;23.95;96.59
10466;BME280;5280;42.600;23.556;2023-06-22T17:36:59;93784.91;;;24.00;95.06
10466;BME280;5280;42.600;23.556;2023-06-22T17:39:27;93795.44;;;23.95;96.17
10466;BME280;5280;42.600;23.556;2023-06-22T17:41:55;93797.81;;;24.05;96.52
10466;BME280;5280;42.600;23.556;2023-06-22T17:44:23;93771.47;;;23.86;97.96
10466;BME280;5280;42.600;23.556;2023-06-22T17:46:55;93803.81;;;24.00;96.87
10466;BME280;5280;42.600;23.556;2023-06-22T17:49:26;93788.47;;;23.86;97.13
10466;BME280;5280;42.600;23.556;2023-06-22T17:51:54;93799.94;;;23.88;97.30
10466;BME280;5280;42.600;23.556;2023-06-22T17:54:22;93816.03;;;23.82;97.12
10466;BME280;5280;42.600;23.556;2023-06-22T17:56:49;93773.41;;;23.56;97.10
10466;BME280;5280;42.600;23.556;2023-06-22T17:59:17;93767.75;;;23.51;96.84
10466;BME280;5280;42.600;23.556;2023-06-22T18:01:45;93792.31;;;23.56;97.22
10466;BME280;5280;42.600;23.556;2023-06-22T18:04:15;93804.75;;;23.57;96.55
10466;BME280;5280;42.600;23.556;2023-06-22T18:06:43;93800.19;;;23.43;97.38
10466;BME280;5280;42.600;23.556;2023-06-22T18:09:12;93780.88;;;23.25;97.73
10466;BME280;5280;42.600;23.556;2023-06-22T18:11:43;93774.94;;;23.14;98.25
10466;BME280;5280;42.600;23.556;2023-06-22T18:14:13;93809.81;;;23.31;97.76
10466;BME280;5280;42.600;23.556;2023-06-22T18:16:43;93794.66;;;23.15;97.75
10466;BME280;5280;42.600;23.556;2023-06-22T18:19:10;93810.09;;;23.21;97.45
10466;BME280;5280;42.600;23.556;2023-06-22T18:21:41;93820.50;;;23.24;98.54